Time;durP1;ratioP1;P1;durP2;ratioP2;P2;SDS_P1;SDS_P2;PMS_P1;PMS_P2;Temp;Humidity;BMP_temperature;BMP_pressure;BME280_temperature;BME280_humidity;BME280_pressure;Samples;Min_cycle;Max_cycle;Signal;HPM_P1;HPM_P2
2022/04/27 00:00:20;;;;;;;6.03;4.07;;;11.70;99.90;;;;;;1040229;28;20075;-62
2022/04/27 00:00:50;;;;;;;4.70;3.37;;;11.70;99.90;;;;;;1039949;28;20014;-61
2022/04/27 00:01:21;;;;;;;4.00;3.20;;;11.70;99.90;;;;;;1040108;28;20071;-61
2022/04/27 00:01:52;;;;;;;5.33;3.83;;;11.70;99.90;;;;;;1040212;28;20018;-62
2022/04/27 00:02:22;;;;;;;4.47;3.70;;;11.70;99.90;;;;;;1040462;28;20095;-62
2022/04/27 00:02:53;;;;;;;5.53;4.03;;;11.70;99.90;;;;;;1040267;28;20096;-62
2022/04/27 00:03:24;;;;;;;4.93;2.83;;;11.70;99.90;;;;;;1040143;28;20508;-62
2022/04/27 00:03:54;;;;;;;4.57;3.50;;;11.70;99.90;;;;;;1039667;28;20484;-62
2022/04/27 00:04:25;;;;;;;5.80;3.50;;;11.70;99.90;;;;;;1040081;28;20288;-62
2022/04/27 00:04:55;;;;;;;4.67;3.87;;;11.70;99.90;;;;;;1039991;28;20012;-62
2022/04/27 00:05:26;;;;;;;4.13;3.30;;;11.70;99.90;;;;;;1040349;28;20017;-61
2022/04/27 00:05:57;;;;;;;3.50;3.10;;;11.70;99.90;;;;;;1040283;28;20076;-62
2022/04/27 00:06:27;;;;;;;3.37;3.00;;;11.60;99.90;;;;;;1040445;28;20022;-62
2022/04/27 00:06:58;;;;;;;5.60;3.50;;;11.60;99.90;;;;;;1040333;28;20075;-62
2022/04/27 00:07:28;;;;;;;5.03;3.33;;;11.60;99.90;;;;;;1040373;28;20018;-61
2022/04/27 00:07:59;;;;;;;3.73;3.33;;;11.60;99.90;;;;;;1040213;28;20532;-62
2022/04/27 00:08:30;;;;;;;4.53;3.25;;;11.60;99.90;;;;;;1040024;28;20569;-61
2022/04/27 00:09:01;;;;;;;3.87;3.57;;;11.60;99.90;;;;;;1040322;28;20104;-63
2022/04/27 00:09:32;;;;;;;4.03;3.37;;;11.60;99.90;;;;;;1039815;28;20056;-63
2022/04/27 00:10:04;;;;;;;3.80;3.25;;;11.60;99.90;;;;;;1039995;28;20033;-62
2022/04/27 00:10:35;;;;;;;4.90;3.70;;;11.60;99.90;;;;;;1039856;28;20017;-62
2022/04/27 00:11:06;;;;;;;4.97;2.90;;;11.60;99.90;;;;;;1040205;28;20097;-62
2022/04/27 00:11:36;;;;;;;5.37;3.60;;;11.60;99.90;;;;;;1039910;28;20688;-62
2022/04/27 00:12:07;;;;;;;5.33;3.47;;;11.60;99.90;;;;;;1040040;28;20064;-64
2022/04/27 00:12:38;;;;;;;4.30;3.13;;;11.60;99.90;;;;;;1039764;28;20013;-62
2022/04/27 00:13:16;;;;;;;4.32;3.00;;;11.60;99.90;;;;;;1040137;28;20017;-62
2022/04/27 00:13:47;;;;;;;5.07;3.45;;;11.60;99.90;;;;;;1040072;28;20037;-63
2022/04/27 00:14:17;;;;;;;4.30;3.20;;;11.50;99.90;;;;;;1039844;28;20382;-63
2022/04/27 00:14:48;;;;;;;3.87;2.83;;;11.60;99.90;;;;;;1039930;28;20014;-63
2022/04/27 00:15:23;;;;;;;4.63;3.57;;;11.50;99.90;;;;;;1039795;28;20013;-63
2022/04/27 00:15:53;;;;;;;4.65;3.20;;;11.60;99.90;;;;;;1040413;28;20040;-60
2022/04/27 00:16:24;;;;;;;4.50;3.50;;;11.50;99.90;;;;;;1040219;28;20049;-62
2022/04/27 00:16:56;;;;;;;4.27;3.37;;;11.50;99.90;;;;;;1040525;28;20500;-61
2022/04/27 00:17:26;;;;;;;5.47;4.20;;;11.50;99.90;;;;;;1039651;28;20542;-64
2022/04/27 00:17:57;;;;;;;4.33;3.50;;;11.50;99.90;;;;;;1040196;28;20017;-61
2022/04/27 00:18:27;;;;;;;3.97;3.20;;;11.50;99.90;;;;;;1039898;28;20338;-61
2022/04/27 00:18:58;;;;;;;6.67;3.77;;;11.50;99.90;;;;;;1039897;28;20021;-61
2022/04/27 00:19:29;;;;;;;4.45;3.60;;;11.50;99.90;;;;;;1040163;28;20017;-61
2022/04/27 00:19:59;;;;;;;4.93;3.60;;;11.50;99.90;;;;;;1040324;28;20017;-61
2022/04/27 00:20:30;;;;;;;3.90;3.27;;;11.50;99.90;;;;;;1040378;28;20497;-62
2022/04/27 00:21:01;;;;;;;3.93;3.53;;;11.50;99.90;;;;;;1040369;28;20024;-65
2022/04/27 00:21:31;;;;;;;3.93;3.33;;;11.50;99.90;;;;;;1040212;28;20081;-62
2022/04/27 00:22:03;;;;;;;4.83;3.50;;;11.50;99.90;;;;;;1040222;28;20012;-62
2022/04/27 00:22:34;;;;;;;4.38;3.30;;;11.50;99.90;;;;;;1039910;28;20022;-62
2022/04/27 00:23:05;;;;;;;4.75;3.90;;;11.50;99.90;;;;;;1039792;28;20094;-63
2022/04/27 00:23:36;;;;;;;4.43;3.40;;;11.50;99.90;;;;;;1039953;28;20087;-63
2022/04/27 00:24:06;;;;;;;4.03;3.13;;;11.50;99.90;;;;;;1039809;28;20071;-63
2022/04/27 00:24:37;;;;;;;6.13;3.50;;;11.50;99.90;;;;;;1040023;28;20037;-62
2022/04/27 00:25:08;;;;;;;4.03;3.47;;;11.50;99.90;;;;;;1039755;28;20013;-63
2022/04/27 00:25:38;;;;;;;4.25;3.35;;;11.50;99.90;;;;;;1040006;28;20151;-63
2022/04/27 00:26:09;;;;;;;4.83;3.63;;;11.50;99.90;;;;;;1039881;28;20131;-63
2022/04/27 00:26:40;;;;;;;4.90;3.60;;;11.50;99.90;;;;;;1040130;28;20005;-62
2022/04/27 00:27:10;;;;;;;5.30;3.53;;;11.50;99.90;;;;;;1040096;28;20009;-62
2022/04/27 00:27:41;;;;;;;4.10;3.47;;;11.50;99.90;;;;;;1040378;28;20037;-62
2022/04/27 00:28:11;;;;;;;3.80;2.87;;;11.50;99.90;;;;;;1040203;28;20472;-64
2022/04/27 00:28:42;;;;;;;4.30;3.43;;;11.50;99.90;;;;;;1040472;28;20045;-63
2022/04/27 00:29:12;;;;;;;4.53;3.43;;;11.50;99.90;;;;;;1040010;28;20021;-62
2022/04/27 00:29:43;;;;;;;5.10;4.00;;;11.50;99.90;;;;;;1040486;28;20496;-62
2022/04/27 00:30:14;;;;;;;5.43;3.40;;;11.50;99.90;;;;;;1039994;28;20373;-63
2022/04/27 00:30:44;;;;;;;7.43;3.40;;;11.50;99.90;;;;;;1040406;28;20005;-63
2022/04/27 00:31:15;;;;;;;3.67;3.37;;;11.50;99.90;;;;;;1040073;28;20013;-63
2022/04/27 00:31:45;;;;;;;5.93;3.30;;;11.50;99.90;;;;;;1040444;28;20009;-62
2022/04/27 00:32:16;;;;;;;4.87;3.50;;;11.50;99.90;;;;;;1039999;28;20013;-63
2022/04/27 00:32:46;;;;;;;4.67;3.17;;;11.50;99.90;;;;;;1040451;28;20005;-62
2022/04/27 00:33:17;;;;;;;4.67;3.07;;;11.50;99.90;;;;;;1039694;28;20026;-64
2022/04/27 00:33:47;;;;;;;3.73;3.30;;;11.50;99.90;;;;;;1040121;28;20014;-62
2022/04/27 00:34:18;;;;;;;4.63;3.40;;;11.50;99.90;;;;;;1039748;28;20009;-63
2022/04/27 00:34:49;;;;;;;4.80;3.37;;;11.50;99.90;;;;;;1040134;28;20006;-63
2022/04/27 00:35:19;;;;;;;4.43;3.30;;;11.50;99.90;;;;;;1039974;28;20058;-63
2022/04/27 00:35:50;;;;;;;4.03;3.13;;;11.50;99.90;;;;;;1040635;28;20006;-63
2022/04/27 00:36:20;;;;;;;4.47;3.60;;;11.40;99.90;;;;;;1040169;28;20444;-64
2022/04/27 00:36:51;;;;;;;3.87;2.93;;;11.50;99.90;;;;;;1040115;28;20017;-62
2022/04/27 00:37:21;;;;;;;4.80;3.57;;;11.40;99.90;;;;;;1040245;28;20024;-63
2022/04/27 00:37:52;;;;;;;4.93;3.43;;;11.40;99.90;;;;;;1040354;28;20063;-62
2022/04/27 00:38:22;;;;;;;5.47;3.60;;;11.40;99.90;;;;;;1039924;28;20018;-61
2022/04/27 00:38:53;;;;;;;5.17;3.30;;;11.40;99.90;;;;;;1039934;28;20017;-62
2022/04/27 00:39:24;;;;;;;3.80;3.27;;;11.40;99.90;;;;;;1039941;28;20024;-62
2022/04/27 00:39:54;;;;;;;4.67;3.30;;;11.40;99.90;;;;;;1039723;28;20010;-61
2022/04/27 00:40:24;;;;;;;4.03;3.33;;;11.40;99.90;;;;;;1040350;28;20364;-62
2022/04/27 00:40:55;;;;;;;4.27;3.20;;;11.40;99.90;;;;;;1039718;28;20436;-62
2022/04/27 00:41:26;;;;;;;3.90;3.47;;;11.40;99.90;;;;;;1039840;28;20013;-63
2022/04/27 00:41:59;;;;;;;3.60;3.13;;;11.40;99.90;;;;;;1039853;28;20009;-62
2022/04/27 00:42:30;;;;;;;4.18;3.38;;;11.40;99.90;;;;;;1040036;28;20009;-62
2022/04/27 00:43:00;;;;;;;4.53;3.43;;;11.40;99.90;;;;;;1039920;28;20005;-63
2022/04/27 00:43:39;;;;;;;5.73;3.77;;;11.30;99.90;;;;;;1040219;28;20009;-62
2022/04/27 00:44:10;;;;;;;4.32;3.00;;;11.40;99.90;;;;;;1039812;28;20009;-62
2022/04/27 00:44:43;;;;;;;4.70;3.60;;;11.30;99.90;;;;;;1035683;28;20021;-63
2022/04/27 00:45:14;;;;;;;3.78;3.38;;;11.30;99.90;;;;;;1035710;28;20009;-62
2022/04/27 00:45:44;;;;;;;3.73;3.30;;;11.30;99.90;;;;;;1036555;28;20002;-63
2022/04/27 00:46:15;;;;;;;4.07;3.47;;;11.30;99.90;;;;;;1036114;28;20010;-62
2022/04/27 00:46:46;;;;;;;5.20;3.43;;;11.30;99.90;;;;;;1035949;28;20002;-63
2022/04/27 00:47:18;;;;;;;3.60;3.10;;;11.30;99.90;;;;;;1035675;28;20057;-62
2022/04/27 00:47:48;;;;;;;4.72;2.72;;;11.30;99.90;;;;;;1036094;28;20006;-62
2022/04/27 00:48:19;;;;;;;4.10;3.23;;;11.30;99.90;;;;;;1039855;28;20006;-62
2022/04/27 00:48:49;;;;;;;6.20;3.77;;;11.30;99.90;;;;;;1040098;28;20097;-62
2022/04/27 00:49:20;;;;;;;4.97;3.30;;;11.30;99.90;;;;;;1039646;28;20013;-61
2022/04/27 00:49:52;;;;;;;4.80;3.53;;;11.30;99.90;;;;;;1037725;28;20013;-63
2022/04/27 00:50:23;;;;;;;4.93;3.85;;;11.30;99.90;;;;;;1035827;28;20002;-62
2022/04/27 00:50:53;;;;;;;3.80;3.40;;;11.30;99.90;;;;;;1039349;28;20040;-63
2022/04/27 00:51:25;;;;;;;3.73;3.10;;;11.30;99.90;;;;;;1039682;28;20060;-63
2022/04/27 00:51:56;;;;;;;3.13;2.80;;;11.30;99.90;;;;;;1040132;28;20010;-63
2022/04/27 00:52:28;;;;;;;4.77;3.50;;;11.30;99.90;;;;;;1039789;28;20044;-61
2022/04/27 00:53:00;;;;;;;3.97;3.50;;;11.30;99.90;;;;;;1036379;28;20006;-62
2022/04/27 00:53:31;;;;;;;6.20;3.75;;;11.30;99.90;;;;;;1039514;28;20005;-62
2022/04/27 00:54:01;;;;;;;9.90;3.90;;;11.30;99.90;;;;;;1035985;28;20693;-60
2022/04/27 00:54:34;;;;;;;5.17;3.80;;;11.30;99.90;;;;;;1035947;28;20029;-63
2022/04/27 00:55:05;;;;;;;4.80;3.58;;;11.20;99.90;;;;;;1039969;28;20411;-60
2022/04/27 00:55:35;;;;;;;5.72;3.78;;;11.20;99.90;;;;;;1039655;28;20076;-61
2022/04/27 00:56:06;;;;;;;3.70;3.17;;;11.20;99.90;;;;;;1040153;28;20032;-62
2022/04/27 00:56:38;;;;;;;3.72;3.35;;;11.20;99.90;;;;;;1039450;28;20048;-62
2022/04/27 00:57:09;;;;;;;4.38;3.47;;;11.20;99.90;;;;;;1036001;28;20049;-62
2022/04/27 00:57:40;;;;;;;6.40;3.53;;;11.20;99.90;;;;;;1035407;28;20026;-62
2022/04/27 00:58:14;;;;;;;6.20;4.07;;;11.20;99.90;;;;;;1036334;28;20160;-63
2022/04/27 00:58:47;;;;;;;4.25;3.17;;;11.20;99.90;;;;;;1036500;28;20006;-61
2022/04/27 00:59:18;;;;;;;4.70;3.72;;;11.20;99.90;;;;;;1039759;28;20018;-62
2022/04/27 00:59:49;;;;;;;5.50;3.90;;;11.20;99.90;;;;;;1039899;28;20014;-62
2022/04/27 01:00:19;;;;;;;4.03;3.37;;;11.20;99.90;;;;;;1039912;28;20009;-62
2022/04/27 01:00:50;;;;;;;4.20;3.40;;;11.20;99.90;;;;;;1040060;28;20010;-62
2022/04/27 01:01:21;;;;;;;5.30;3.38;;;11.20;99.90;;;;;;1040164;28;20503;-63
2022/04/27 01:01:52;;;;;;;5.83;3.73;;;11.20;99.90;;;;;;1040028;28;20063;-62
2022/04/27 01:02:22;;;;;;;5.27;3.70;;;11.20;99.90;;;;;;1040320;28;20025;-62
2022/04/27 01:02:53;;;;;;;5.40;3.70;;;11.20;99.90;;;;;;1040112;28;20020;-62
2022/04/27 01:03:23;;;;;;;6.90;3.87;;;11.20;99.90;;;;;;1040160;28;20018;-62
2022/04/27 01:03:54;;;;;;;5.10;3.57;;;11.20;99.90;;;;;;1039950;28;20116;-62
2022/04/27 01:04:24;;;;;;;3.80;3.33;;;11.20;99.90;;;;;;1040197;28;20010;-62
2022/04/27 01:04:55;;;;;;;4.73;3.77;;;11.20;99.90;;;;;;1040126;28;20002;-60
2022/04/27 01:05:26;;;;;;;6.03;4.07;;;11.20;99.90;;;;;;1039825;28;20479;-62
2022/04/27 01:05:57;;;;;;;4.43;3.70;;;11.20;99.90;;;;;;1039663;28;20160;-62
2022/04/27 01:06:29;;;;;;;4.60;3.50;;;11.20;99.90;;;;;;1039981;28;20009;-62
2022/04/27 01:07:01;;;;;;;4.75;3.63;;;11.20;99.90;;;;;;1039324;28;20507;-61
2022/04/27 01:07:32;;;;;;;5.18;3.92;;;11.20;99.90;;;;;;1039552;28;20022;-61
2022/04/27 01:08:03;;;;;;;5.75;3.92;;;11.20;99.90;;;;;;1039853;28;20014;-62
2022/04/27 01:08:34;;;;;;;4.35;3.85;;;11.20;99.90;;;;;;1039548;28;20079;-62
2022/04/27 01:09:05;;;;;;;4.17;3.60;;;11.20;99.90;;;;;;1039799;28;20067;-62
2022/04/27 01:09:35;;;;;;;4.70;3.47;;;11.20;99.90;;;;;;1040082;28;20382;-62
2022/04/27 01:10:08;;;;;;;4.90;3.37;;;11.20;99.90;;;;;;1040070;28;20419;-62
2022/04/27 01:10:40;;;;;;;5.00;3.20;;;11.20;99.90;;;;;;1040204;28;20013;-61
2022/04/27 01:11:12;;;;;;;4.05;3.45;;;11.20;99.90;;;;;;1039934;28;20075;-63
2022/04/27 01:11:42;;;;;;;4.65;3.65;;;11.20;99.90;;;;;;1039820;28;20013;-61
2022/04/27 01:12:15;;;;;;;4.20;3.47;;;11.20;99.90;;;;;;1039651;28;20520;-61
2022/04/27 01:12:46;;;;;;;4.55;3.55;;;11.20;99.90;;;;;;1039919;28;20010;-62
2022/04/27 01:13:17;;;;;;;5.03;3.58;;;11.20;99.90;;;;;;1039634;28;20485;-62
2022/04/27 01:13:47;;;;;;;5.57;4.00;;;11.20;99.90;;;;;;1040100;28;20437;-61
2022/04/27 01:14:18;;;;;;;4.30;3.90;;;11.20;99.90;;;;;;1035355;28;20427;-63
2022/04/27 01:14:49;;;;;;;4.50;2.83;;;11.10;99.90;;;;;;1036028;28;20489;-62
2022/04/27 01:15:38;;;;;;;4.57;3.90;;;11.10;99.90;;;;;;1039681;28;20485;-62
2022/04/27 01:16:09;;;;;;;3.90;3.35;;;11.10;99.90;;;;;;1040168;28;20437;-62
2022/04/27 01:16:39;;;;;;;5.23;3.93;;;11.10;99.90;;;;;;1039800;28;20543;-62
2022/04/27 01:17:10;;;;;;;4.80;3.47;;;11.20;99.90;;;;;;1039635;28;20128;-62
2022/04/27 01:17:40;;;;;;;4.73;3.47;;;11.20;99.90;;;;;;1035306;28;20022;-62
2022/04/27 01:18:11;;;;;;;4.97;3.20;;;11.10;99.90;;;;;;1035769;28;20555;-64
2022/04/27 01:18:43;;;;;;;3.92;3.30;;;11.10;99.90;;;;;;1035585;28;20092;-61
2022/04/27 01:19:13;;;;;;;3.78;3.30;;;11.10;99.90;;;;;;1039766;28;20076;-61
2022/04/27 01:19:44;;;;;;;5.10;3.17;;;11.10;99.90;;;;;;1039946;28;20013;-62
2022/04/27 01:20:14;;;;;;;3.87;3.40;;;11.10;99.90;;;;;;1039837;28;20017;-62
2022/04/27 01:20:45;;;;;;;4.60;3.47;;;11.10;99.90;;;;;;1039769;28;20054;-61
2022/04/27 01:21:17;;;;;;;4.30;3.40;;;11.10;99.90;;;;;;1039829;28;20041;-61
2022/04/27 01:21:48;;;;;;;5.45;3.97;;;11.10;99.90;;;;;;1039471;28;20017;-62
2022/04/27 01:22:20;;;;;;;3.50;3.20;;;11.10;99.90;;;;;;1039850;28;20009;-63
2022/04/27 01:22:50;;;;;;;5.50;4.00;;;11.10;99.90;;;;;;1039781;28;20738;-62
2022/04/27 01:23:21;;;;;;;4.10;3.70;;;11.10;99.90;;;;;;1039797;28;20668;-62
2022/04/27 01:23:53;;;;;;;4.10;3.60;;;11.10;99.90;;;;;;1039374;28;20495;-62
2022/04/27 01:24:24;;;;;;;5.18;4.05;;;11.00;99.90;;;;;;1039828;28;20348;-63
2022/04/27 01:24:56;;;;;;;4.28;3.88;;;11.00;99.90;;;;;;1039924;28;20037;-62
2022/04/27 01:25:27;;;;;;;3.67;3.38;;;11.00;99.90;;;;;;1040059;28;20116;-61
2022/04/27 01:26:05;;;;;;;6.33;3.80;;;11.00;99.90;;;;;;1040138;28;20377;-63
2022/04/27 01:26:37;;;;;;;6.07;3.85;;;11.00;99.90;;;;;;1040081;28;20044;-63
2022/04/27 01:27:08;;;;;;;4.55;3.85;;;11.00;99.90;;;;;;1040057;28;20020;-61
2022/04/27 01:27:42;;;;;;;4.40;3.57;;;11.00;99.90;;;;;;1039631;28;20032;-61
2022/04/27 01:28:13;;;;;;;4.05;3.63;;;11.00;99.90;;;;;;1039641;28;20026;-62
2022/04/27 01:28:44;;;;;;;4.03;2.93;;;11.00;99.90;;;;;;1039982;28;20022;-61
2022/04/27 01:29:15;;;;;;;5.20;3.57;;;11.00;99.90;;;;;;1039639;28;20110;-61
2022/04/27 01:29:46;;;;;;;6.55;3.97;;;11.00;99.90;;;;;;1039772;28;20095;-62
2022/04/27 01:30:17;;;;;;;6.00;3.17;;;11.00;99.90;;;;;;1039614;28;20472;-62
2022/04/27 01:30:53;;;;;;;6.90;3.90;;;11.00;99.90;;;;;;1039879;28;20105;-62
2022/04/27 01:31:24;;;;;;;3.78;3.40;;;11.00;99.90;;;;;;1039653;28;20010;-62
2022/04/27 01:31:56;;;;;;;6.03;3.33;;;11.00;99.90;;;;;;1039823;28;20108;-62
2022/04/27 01:32:27;;;;;;;3.95;3.47;;;11.00;99.90;;;;;;1039401;28;20021;-62
2022/04/27 01:32:57;;;;;;;5.37;3.60;;;11.00;99.90;;;;;;1039916;28;20105;-62
2022/04/27 01:33:35;;;;;;;5.87;3.50;;;11.00;99.90;;;;;;1039391;28;20020;-61
2022/04/27 01:34:06;;;;;;;4.28;2.88;;;11.00;99.90;;;;;;1040229;28;20520;-62
2022/04/27 01:34:36;;;;;;;4.80;3.23;;;11.00;99.90;;;;;;1039913;28;20530;-62
2022/04/27 01:35:07;;;;;;;5.17;3.87;;;11.00;99.90;;;;;;1040176;28;20034;-63
2022/04/27 01:35:38;;;;;;;4.38;3.38;;;11.00;99.90;;;;;;1039788;28;20025;-61
2022/04/27 01:36:10;;;;;;;5.97;4.13;;;11.00;99.90;;;;;;1040351;28;20535;-62
2022/04/27 01:36:41;;;;;;;4.07;3.45;;;11.00;99.90;;;;;;1039853;28;20044;-62
2022/04/27 01:38:00;;;;;;;5.63;3.40;;;10.90;99.90;;;;;;1037179;28;20095;-62
2022/04/27 01:38:42;;;;;;;4.10;3.70;;;10.90;99.90;;;;;;1037100;28;20033;-61
2022/04/27 01:39:13;;;;;;;5.57;3.53;;;;;;;;;;1036026;28;20030;-62
2022/04/27 01:39:43;;;;;;;4.63;4.03;;;10.90;99.90;;;;;;1035765;28;20053;-62
2022/04/27 01:40:14;;;;;;;3.73;3.40;;;10.90;99.90;;;;;;1036012;28;20022;-62
2022/04/27 01:40:46;;;;;;;4.40;3.80;;;10.90;99.90;;;;;;1035490;28;20159;-62
2022/04/27 01:41:16;;;;;;;5.13;4.22;;;10.90;99.90;;;;;;1035642;28;20026;-61
2022/04/27 01:41:47;;;;;;;6.67;4.03;;;10.90;99.90;;;;;;1035457;28;20030;-62
2022/04/27 01:42:17;;;;;;;5.77;3.70;;;10.90;99.90;;;;;;1035563;28;20113;-62
2022/04/27 01:42:49;;;;;;;5.27;3.83;;;10.90;99.90;;;;;;1035241;28;20516;-62
2022/04/27 01:43:23;;;;;;;5.07;4.10;;;10.90;99.90;;;;;;1035534;28;20036;-62
2022/04/27 01:43:53;;;;;;;4.00;3.30;;;10.90;99.90;;;;;;1035768;28;20022;-62
2022/04/27 01:44:24;;;;;;;4.33;3.90;;;10.90;99.90;;;;;;1039547;28;20029;-65
2022/04/27 01:44:55;;;;;;;5.37;3.83;;;10.90;99.90;;;;;;1039462;28;20049;-64
2022/04/27 01:45:26;;;;;;;4.88;3.47;;;10.90;99.90;;;;;;1039716;28;20100;-62
2022/04/27 01:45:56;;;;;;;4.13;3.73;;;10.90;99.90;;;;;;1039521;28;20013;-63
2022/04/27 01:46:28;;;;;;;6.33;3.60;;;10.90;99.90;;;;;;1040106;28;20488;-61
2022/04/27 01:46:59;;;;;;;5.50;4.07;;;10.90;99.90;;;;;;1039943;28;20016;-61
2022/04/27 01:47:30;;;;;;;4.60;4.20;;;10.90;99.90;;;;;;1039431;28;20084;-61
2022/04/27 01:48:00;;;;;;;6.53;4.13;;;10.90;99.90;;;;;;1039436;28;20104;-62
2022/04/27 01:48:31;;;;;;;4.33;3.93;;;10.90;99.90;;;;;;1039702;28;20010;-62
2022/04/27 01:49:02;;;;;;;3.47;3.17;;;10.90;99.90;;;;;;1039633;28;20041;-62
2022/04/27 01:49:32;;;;;;;5.33;4.17;;;10.90;99.90;;;;;;1039705;28;20361;-64
2022/04/27 01:50:03;;;;;;;5.63;4.40;;;10.90;99.90;;;;;;1039648;28;20424;-63
2022/04/27 01:50:33;;;;;;;5.13;3.70;;;10.90;99.90;;;;;;1039826;28;20037;-63
2022/04/27 01:51:04;;;;;;;5.27;4.13;;;10.90;99.90;;;;;;1039622;28;20014;-61
2022/04/27 01:54:17;;;;;;;4.00;3.60;;;10.90;99.90;;;;;;1040288;28;20094;-62
2022/04/27 01:54:47;;;;;;;4.53;3.83;;;10.90;99.90;;;;;;1040093;28;20470;-60
2022/04/27 01:55:19;;;;;;;4.60;3.90;;;10.90;99.90;;;;;;1039790;28;20404;-62
2022/04/27 01:55:50;;;;;;;3.88;3.45;;;10.90;99.90;;;;;;1039772;28;20088;-61
2022/04/27 01:56:21;;;;;;;4.80;3.80;;;10.90;99.90;;;;;;1039345;28;20010;-61
2022/04/27 01:56:52;;;;;;;4.13;3.73;;;10.90;99.90;;;;;;1039841;28;20037;-62
2022/04/27 01:57:22;;;;;;;3.83;3.40;;;10.90;99.90;;;;;;1039332;28;20006;-62
2022/04/27 01:57:54;;;;;;;6.10;4.10;;;10.90;99.90;;;;;;1040047;28;20016;-62
2022/04/27 01:58:24;;;;;;;5.03;3.80;;;10.90;99.90;;;;;;1035617;28;20029;-62
2022/04/27 01:58:55;;;;;;;5.30;4.10;;;10.90;99.90;;;;;;1035982;28;20014;-62
2022/04/27 01:59:25;;;;;;;5.83;3.77;;;10.90;99.90;;;;;;1035211;28;20100;-63
2022/04/27 01:59:56;;;;;;;4.40;3.87;;;10.80;99.90;;;;;;1035614;28;20018;-62
2022/04/27 02:00:26;;;;;;;5.67;4.43;;;10.80;99.90;;;;;;1035561;28;20017;-61
2022/04/27 02:00:57;;;;;;;5.47;4.13;;;10.90;99.90;;;;;;1036584;28;20724;-62
2022/04/27 02:01:28;;;;;;;4.63;3.90;;;10.80;99.90;;;;;;1039671;28;20020;-64
2022/04/27 02:01:58;;;;;;;5.67;4.60;;;10.90;99.90;;;;;;1039985;28;20008;-61
2022/04/27 02:02:29;;;;;;;4.27;3.67;;;10.80;99.90;;;;;;1039638;28;20033;-61
2022/04/27 02:03:00;;;;;;;4.20;3.33;;;10.80;99.90;;;;;;1039615;28;20408;-62
2022/04/27 02:03:30;;;;;;;6.63;4.13;;;10.80;99.90;;;;;;1035409;28;20526;-63
2022/04/27 02:04:01;;;;;;;4.47;4.03;;;10.80;99.90;;;;;;1035305;28;20006;-61
2022/04/27 02:04:31;;;;;;;5.20;4.20;;;10.80;99.90;;;;;;1035506;28;20057;-63
2022/04/27 02:05:04;;;;;;;5.17;3.77;;;10.80;99.90;;;;;;1035530;28;20017;-62
2022/04/27 02:05:35;;;;;;;4.10;3.70;;;10.80;99.90;;;;;;1035815;28;20018;-62
2022/04/27 02:06:06;;;;;;;4.93;3.90;;;10.80;99.90;;;;;;1035378;28;20057;-62
2022/04/27 02:06:37;;;;;;;5.43;4.28;;;10.80;99.90;;;;;;1035473;28;20303;-63
2022/04/27 02:07:08;;;;;;;6.00;4.57;;;10.70;99.90;;;;;;1035403;28;20026;-62
2022/04/27 02:07:39;;;;;;;8.20;4.10;;;10.70;99.90;;;;;;1031704;28;20015;-61
2022/04/27 02:08:10;;;;;;;5.50;4.30;;;10.70;99.90;;;;;;1031179;28;20027;-62
2022/04/27 02:08:40;;;;;;;4.97;3.50;;;10.70;99.90;;;;;;1030139;28;20523;-61
2022/04/27 02:09:11;;;;;;;4.37;3.57;;;10.70;99.90;;;;;;1031470;28;20018;-62
2022/04/27 02:09:41;;;;;;;4.27;3.87;;;10.70;99.90;;;;;;1031459;28;20014;-62
2022/04/27 02:10:12;;;;;;;5.40;4.17;;;10.70;99.90;;;;;;1035453;28;20022;-61
2022/04/27 02:10:42;;;;;;;5.87;3.90;;;10.70;99.90;;;;;;1039691;28;20110;-62
2022/04/27 02:11:14;;;;;;;4.57;3.57;;;10.70;99.90;;;;;;1039274;28;20096;-63
2022/04/27 02:11:45;;;;;;;5.78;3.88;;;10.70;99.90;;;;;;1040111;28;20010;-62
2022/04/27 02:12:15;;;;;;;5.33;4.30;;;10.70;99.90;;;;;;1039710;28;20020;-64
2022/04/27 02:12:46;;;;;;;6.40;4.10;;;10.70;99.90;;;;;;1039982;28;20383;-62
2022/04/27 02:13:17;;;;;;;4.67;4.07;;;10.70;99.90;;;;;;1039768;28;20022;-63
2022/04/27 02:13:48;;;;;;;6.13;4.00;;;10.70;99.90;;;;;;1039760;28;20459;-62
2022/04/27 02:14:18;;;;;;;6.20;3.75;;;10.70;99.90;;;;;;1039308;28;20025;-62
2022/04/27 02:14:49;;;;;;;5.80;3.80;;;10.70;99.90;;;;;;1039663;28;20025;-63
2022/04/27 02:15:19;;;;;;;6.00;4.03;;;10.70;99.90;;;;;;1039310;28;20084;-61
2022/04/27 02:15:50;;;;;;;4.13;3.27;;;10.70;99.90;;;;;;1040055;28;20461;-61
2022/04/27 02:16:28;;;;;;;4.83;3.87;;;10.70;99.90;;;;;;1039687;28;20071;-62
2022/04/27 02:16:58;;;;;;;5.80;3.75;;;10.70;99.90;;;;;;1039559;28;20022;-61
2022/04/27 02:17:30;;;;;;;5.67;4.43;;;10.70;99.90;;;;;;1039356;28;20026;-61
2022/04/27 02:18:01;;;;;;;4.28;3.88;;;10.60;99.90;;;;;;1039469;28;20171;-61
2022/04/27 02:18:32;;;;;;;5.78;4.15;;;10.60;99.90;;;;;;1035262;28;20022;-62
2022/04/27 02:19:04;;;;;;;4.27;3.40;;;10.60;99.90;;;;;;1039452;28;20422;-62
2022/04/27 02:19:34;;;;;;;6.05;4.07;;;10.60;99.90;;;;;;1039136;28;20009;-61
2022/04/27 02:20:06;;;;;;;4.60;3.87;;;10.60;99.90;;;;;;1039595;28;20029;-62
2022/04/27 02:20:36;;;;;;;4.93;3.80;;;10.60;99.90;;;;;;1039559;28;20396;-62
2022/04/27 02:21:07;;;;;;;4.53;3.77;;;10.60;99.90;;;;;;1039894;28;20413;-62
2022/04/27 02:21:39;;;;;;;6.80;3.97;;;10.60;99.90;;;;;;1039260;28;20021;-63
2022/04/27 02:22:09;;;;;;;4.80;3.95;;;10.60;99.90;;;;;;1039500;28;20032;-62
2022/04/27 02:22:40;;;;;;;5.50;3.90;;;10.60;99.90;;;;;;1039330;28;20024;-61
2022/04/27 02:23:11;;;;;;;4.13;3.58;;;10.60;99.90;;;;;;1039708;28;20022;-62
2022/04/27 02:23:44;;;;;;;5.22;3.67;;;10.60;99.90;;;;;;1039389;28;20025;-63
2022/04/27 02:24:15;;;;;;;5.03;3.55;;;10.60;99.90;;;;;;1039662;28;20017;-63
2022/04/27 02:24:46;;;;;;;4.80;3.85;;;10.60;99.90;;;;;;1039369;28;20080;-62
2022/04/27 02:25:17;;;;;;;5.03;3.87;;;10.60;99.90;;;;;;1039668;28;20155;-63
2022/04/27 02:25:48;;;;;;;6.35;3.60;;;10.60;99.90;;;;;;1039447;28;20016;-61
2022/04/27 02:26:19;;;;;;;6.07;4.53;;;10.60;99.90;;;;;;1039447;28;20159;-62
2022/04/27 02:26:49;;;;;;;4.37;3.97;;;10.60;99.90;;;;;;1039556;28;20009;-62
2022/04/27 02:27:20;;;;;;;4.47;4.07;;;10.60;99.90;;;;;;1039483;28;20013;-61
2022/04/27 02:27:50;;;;;;;4.27;3.87;;;10.60;99.90;;;;;;1039517;28;20492;-62
2022/04/27 02:28:21;;;;;;;4.60;3.60;;;10.60;99.90;;;;;;1039992;28;20636;-61
2022/04/27 02:28:51;;;;;;;5.17;3.90;;;10.60;99.90;;;;;;1039775;28;20020;-62
2022/04/27 02:29:23;;;;;;;5.07;3.90;;;10.60;99.90;;;;;;1039778;28;20005;-62
2022/04/27 02:29:54;;;;;;;4.22;3.58;;;10.60;99.90;;;;;;1039697;28;20028;-65
2022/04/27 02:30:25;;;;;;;4.72;3.80;;;10.60;99.90;;;;;;1039856;28;20009;-61
2022/04/27 02:30:56;;;;;;;5.47;3.90;;;10.60;99.90;;;;;;1039830;28;20014;-62
2022/04/27 02:31:27;;;;;;;6.17;3.83;;;10.60;99.90;;;;;;1039800;28;20096;-62
2022/04/27 02:31:58;;;;;;;6.95;3.90;;;10.60;99.90;;;;;;1039278;28;20006;-64
2022/04/27 02:32:28;;;;;;;4.60;3.60;;;10.60;99.90;;;;;;1039417;28;20017;-61
2022/04/27 02:32:59;;;;;;;3.97;3.50;;;10.60;99.90;;;;;;1039513;28;20429;-63
2022/04/27 02:33:30;;;;;;;4.23;3.70;;;10.60;99.90;;;;;;1039453;28;20173;-61
2022/04/27 02:34:01;;;;;;;4.35;3.83;;;10.60;99.90;;;;;;1039810;28;20460;-63
2022/04/27 02:34:31;;;;;;;3.70;3.33;;;10.60;99.90;;;;;;1039578;28;20508;-62
2022/04/27 02:35:03;;;;;;;4.67;3.90;;;10.60;99.90;;;;;;1039520;28;20017;-63
2022/04/27 02:35:34;;;;;;;4.32;3.92;;;10.60;99.90;;;;;;1039214;28;20029;-62
2022/04/27 02:36:05;;;;;;;4.65;4.00;;;10.60;99.90;;;;;;1039361;28;20009;-63
2022/04/27 02:36:36;;;;;;;4.83;4.30;;;10.60;99.90;;;;;;1039299;28;20025;-62
2022/04/27 02:37:06;;;;;;;5.13;4.07;;;10.60;99.90;;;;;;1035446;28;20017;-62
2022/04/27 02:37:37;;;;;;;4.80;3.70;;;10.60;99.90;;;;;;1035382;28;20026;-61
2022/04/27 02:38:08;;;;;;;5.82;3.63;;;10.60;99.90;;;;;;1039577;28;20010;-62
2022/04/27 02:38:38;;;;;;;5.27;4.10;;;10.60;99.90;;;;;;1039325;28;20488;-62
2022/04/27 02:39:09;;;;;;;4.57;3.63;;;10.60;99.90;;;;;;1039883;28;20033;-61
2022/04/27 02:39:40;;;;;;;6.00;3.60;;;10.60;99.90;;;;;;1039522;28;20025;-62
2022/04/27 02:40:11;;;;;;;3.97;3.57;;;10.60;99.90;;;;;;1039900;28;20037;-63
2022/04/27 02:40:41;;;;;;;3.73;3.23;;;10.50;99.90;;;;;;1039724;28;20017;-62
2022/04/27 02:41:12;;;;;;;4.50;3.80;;;10.60;99.90;;;;;;1039288;28;20036;-60
2022/04/27 02:41:42;;;;;;;3.77;3.27;;;10.50;99.90;;;;;;1039305;28;20021;-61
2022/04/27 02:42:13;;;;;;;4.40;3.67;;;10.50;99.90;;;;;;1035373;28;20400;-61
2022/04/27 02:42:44;;;;;;;4.47;3.23;;;10.50;99.90;;;;;;1035095;28;20474;-62
2022/04/27 02:43:15;;;;;;;5.23;4.20;;;10.50;99.90;;;;;;1039519;28;20260;-61
2022/04/27 02:43:45;;;;;;;4.10;3.53;;;10.50;99.90;;;;;;1039448;28;20016;-61
2022/04/27 02:44:16;;;;;;;6.50;3.70;;;10.50;99.90;;;;;;1039675;28;20045;-61
2022/04/27 02:44:47;;;;;;;5.93;3.93;;;10.50;99.90;;;;;;1039611;28;20025;-61
2022/04/27 02:45:17;;;;;;;4.30;3.60;;;10.50;99.90;;;;;;1039505;28;20022;-60
2022/04/27 02:45:48;;;;;;;4.53;4.13;;;10.50;99.90;;;;;;1039215;28;20152;-62